Osage River (Missouri), Bagnell (06926000)

StateMissouriCurrentPotential (6710 cfs)
RiverOsage RiverFlood - The river is flooding. Obstacles can be treacherous or deadly. The river should be avoided at this stage for casual trips and definitely for the inexperienced. Trips should be attempted only with protective gear and equipment.Flood(none)
Updated2019-10-14 2:30 (19 minutes ago)High - The river is high and potentially dangerous, especially for the young and / or inexperienced. Normal stream obstacles are sometimes difficult to navigate. Extended distances can be attempted, but canoe travel may not be advisable.High(none)
Discharge6710 cfs (median: 1350 cfs)Good - Conditions are ideal for a canoe or kayak. Boats typically will drag on fewer than one-quarter of riffles, if at all, and portages are unnecessary or rare. Normal float lengths can be attempted without a problem.Good(none)
Height5.6 feetLow - River is low but can still be floated. Some riffles are okay but most come with significant dragging and might need a portage. Float lengths should be reduced to accommodate low flow, dragging, and portages.Low(none)
TrendFalling (rising over 24 hours)Poor - River is too low to float comfortably. Most or all riffles will drag or must be portaged and some obstacles (such as slick shelf rock) cause undue problems. Avoid the river at this stage for casual paddling trips.Poor(none)
USGSExternal icon USGS Site for Bagnell (06926000)LocationExternal icon Google Maps

Trending Data

Plot Image
ObservationHeightDischargeMaximum
Discharge
Minimum
Discharge
Mean
Discharge
P05P10P20P25P50
(Median)
P75P80P90P95
2019-10-14 02:30 5.60 6710 75600 (1987) 373 (1975) 7360 449 455 512 600 1350 8250 11700 19800 37100
2019-10-14 01:30 6.63 8730 75600 (1987) 373 (1975) 7360 449 455 512 600 1350 8250 11700 19800 37100
2019-10-14 00:30 7.00 9500 75600 (1987) 373 (1975) 7360 449 455 512 600 1350 8250 11700 19800 37100
2019-10-13 23:30 5.75 6990 76000 (1987) 367 (1975) 7230 420 475 500 556 1450 7170 10700 17200 36900
2019-10-13 22:30 6.54 8540 76000 (1987) 367 (1975) 7230 420 475 500 556 1450 7170 10700 17200 36900
2019-10-13 21:30 7.92 11500 76000 (1987) 367 (1975) 7230 420 475 500 556 1450 7170 10700 17200 36900
2019-10-13 20:30 8.97 14000 76000 (1987) 367 (1975) 7230 420 475 500 556 1450 7170 10700 17200 36900
2019-10-13 19:30 8.78 13600 76000 (1987) 367 (1975) 7230 420 475 500 556 1450 7170 10700 17200 36900
2019-10-13 18:30 6.96 9420 76000 (1987) 367 (1975) 7230 420 475 500 556 1450 7170 10700 17200 36900
2019-10-13 17:30 4.75 5200 76000 (1987) 367 (1975) 7230 420 475 500 556 1450 7170 10700 17200 36900
2019-10-13 16:30 5.39 6320 76000 (1987) 367 (1975) 7230 420 475 500 556 1450 7170 10700 17200 36900
2019-10-13 15:30 6.52 8500 76000 (1987) 367 (1975) 7230 420 475 500 556 1450 7170 10700 17200 36900
2019-10-13 14:30 6.18 7820 76000 (1987) 367 (1975) 7230 420 475 500 556 1450 7170 10700 17200 36900
2019-10-13 13:30 5.46 6450 76000 (1987) 367 (1975) 7230 420 475 500 556 1450 7170 10700 17200 36900
2019-10-13 12:30 3.66 3500 76000 (1987) 367 (1975) 7230 420 475 500 556 1450 7170 10700 17200 36900
2019-10-13 11:30 2.67 2240 76000 (1987) 367 (1975) 7230 420 475 500 556 1450 7170 10700 17200 36900
2019-10-13 10:30 2.70 2280 76000 (1987) 367 (1975) 7230 420 475 500 556 1450 7170 10700 17200 36900
2019-10-13 09:30 2.81 2410 76000 (1987) 367 (1975) 7230 420 475 500 556 1450 7170 10700 17200 36900
2019-10-13 08:30 3.00 2640 76000 (1987) 367 (1975) 7230 420 475 500 556 1450 7170 10700 17200 36900
2019-10-13 07:30 3.15 2830 76000 (1987) 367 (1975) 7230 420 475 500 556 1450 7170 10700 17200 36900
2019-10-13 06:30 3.20 2890 76000 (1987) 367 (1975) 7230 420 475 500 556 1450 7170 10700 17200 36900
2019-10-13 05:30 3.26 2970 76000 (1987) 367 (1975) 7230 420 475 500 556 1450 7170 10700 17200 36900
2019-10-13 04:30 3.35 3090 76000 (1987) 367 (1975) 7230 420 475 500 556 1450 7170 10700 17200 36900
2019-10-13 03:30 3.45 3220 76000 (1987) 367 (1975) 7230 420 475 500 556 1450 7170 10700 17200 36900
2019-10-13 02:30 3.59 3400 76000 (1987) 367 (1975) 7230 420 475 500 556 1450 7170 10700 17200 36900
2019-10-13 01:30 3.75 3620 76000 (1987) 367 (1975) 7230 420 475 500 556 1450 7170 10700 17200 36900
2019-10-13 00:30 3.96 3930 76000 (1987) 367 (1975) 7230 420 475 500 556 1450 7170 10700 17200 36900
2019-10-12 23:30 4.23 4350 76400 (1987) 376 (1972) 6930 418 445 517 625 1340 6500 8720 21600 32200
2019-10-12 22:30 4.59 4930 76400 (1987) 376 (1972) 6930 418 445 517 625 1340 6500 8720 21600 32200
2019-10-12 21:30 5.06 5730 76400 (1987) 376 (1972) 6930 418 445 517 625 1340 6500 8720 21600 32200
2019-10-12 20:30 5.74 6970 76400 (1987) 376 (1972) 6930 418 445 517 625 1340 6500 8720 21600 32200
2019-10-12 19:30 7.09 9690 76400 (1987) 376 (1972) 6930 418 445 517 625 1340 6500 8720 21600 32200
2019-10-12 18:30 7.20 9930 76400 (1987) 376 (1972) 6930 418 445 517 625 1340 6500 8720 21600 32200
2019-10-12 17:30 6.94 9370 76400 (1987) 376 (1972) 6930 418 445 517 625 1340 6500 8720 21600 32200
2019-10-12 16:30 7.43 10400 76400 (1987) 376 (1972) 6930 418 445 517 625 1340 6500 8720 21600 32200
2019-10-12 15:30 5.71 6920 76400 (1987) 376 (1972) 6930 418 445 517 625 1340 6500 8720 21600 32200
2019-10-12 14:30 5.13 5860 76400 (1987) 376 (1972) 6930 418 445 517 625 1340 6500 8720 21600 32200
2019-10-12 13:30 4.33 4510 76400 (1987) 376 (1972) 6930 418 445 517 625 1340 6500 8720 21600 32200
2019-10-12 12:30 4.10 4150 76400 (1987) 376 (1972) 6930 418 445 517 625 1340 6500 8720 21600 32200
2019-10-12 11:30 4.50 4780 76400 (1987) 376 (1972) 6930 418 445 517 625 1340 6500 8720 21600 32200
2019-10-12 10:30 5.22 6020 76400 (1987) 376 (1972) 6930 418 445 517 625 1340 6500 8720 21600 32200
2019-10-12 09:30 5.39 6320 76400 (1987) 376 (1972) 6930 418 445 517 625 1340 6500 8720 21600 32200
2019-10-12 08:30 4.69 5100 76400 (1987) 376 (1972) 6930 418 445 517 625 1340 6500 8720 21600 32200
2019-10-12 07:30 5.05 5720 76400 (1987) 376 (1972) 6930 418 445 517 625 1340 6500 8720 21600 32200
2019-10-12 06:30 5.59 6690 76400 (1987) 376 (1972) 6930 418 445 517 625 1340 6500 8720 21600 32200
2019-10-12 05:30 6.21 7880 76400 (1987) 376 (1972) 6930 418 445 517 625 1340 6500 8720 21600 32200
2019-10-12 04:30 6.94 9370 76400 (1987) 376 (1972) 6930 418 445 517 625 1340 6500 8720 21600 32200
2019-10-12 03:30 7.83 11300 76400 (1987) 376 (1972) 6930 418 445 517 625 1340 6500 8720 21600 32200
2019-10-12 02:30 8.95 14000 76400 (1987) 376 (1972) 6930 418 445 517 625 1340 6500 8720 21600 32200
2019-10-12 01:30 10.47 17900 76400 (1987) 376 (1972) 6930 418 445 517 625 1340 6500 8720 21600 32200
2019-10-12 00:30 12.75 24300 76400 (1987) 376 (1972) 6930 418 445 517 625 1340 6500 8720 21600 32200
2019-10-11 23:30 14.30 29100 76500 (1987) 325 (1932) 7030 424 476 579 703 1740 6950 9200 19900 33100
2019-10-11 22:30 16.07 34800 76500 (1987) 325 (1932) 7030 424 476 579 703 1740 6950 9200 19900 33100
2019-10-11 21:30 16.22 35300 76500 (1987) 325 (1932) 7030 424 476 579 703 1740 6950 9200 19900 33100
2019-10-11 20:30 16.11 35000 76500 (1987) 325 (1932) 7030 424 476 579 703 1740 6950 9200 19900 33100
2019-10-11 19:30 15.93 34400 76500 (1987) 325 (1932) 7030 424 476 579 703 1740 6950 9200 19900 33100
2019-10-11 18:30 15.71 33700 76500 (1987) 325 (1932) 7030 424 476 579 703 1740 6950 9200 19900 33100
2019-10-11 17:30 15.38 32600 76500 (1987) 325 (1932) 7030 424 476 579 703 1740 6950 9200 19900 33100
2019-10-11 16:30 15.05 31500 76500 (1987) 325 (1932) 7030 424 476 579 703 1740 6950 9200 19900 33100
2019-10-11 15:30 14.23 28900 76500 (1987) 325 (1932) 7030 424 476 579 703 1740 6950 9200 19900 33100
2019-10-11 14:30 14.31 29100 76500 (1987) 325 (1932) 7030 424 476 579 703 1740 6950 9200 19900 33100
2019-10-11 13:30 14.36 29300 76500 (1987) 325 (1932) 7030 424 476 579 703 1740 6950 9200 19900 33100
2019-10-11 12:30 12.94 24900 76500 (1987) 325 (1932) 7030 424 476 579 703 1740 6950 9200 19900 33100
2019-10-11 11:30 11.53 20800 76500 (1987) 325 (1932) 7030 424 476 579 703 1740 6950 9200 19900 33100
2019-10-11 10:30 11.83 21600 76500 (1987) 325 (1932) 7030 424 476 579 703 1740 6950 9200 19900 33100
2019-10-11 09:30 12.35 23100 76500 (1987) 325 (1932) 7030 424 476 579 703 1740 6950 9200 19900 33100
2019-10-11 08:30 11.65 21100 76500 (1987) 325 (1932) 7030 424 476 579 703 1740 6950 9200 19900 33100
2019-10-11 07:30 11.23 19900 76500 (1987) 325 (1932) 7030 424 476 579 703 1740 6950 9200 19900 33100
2019-10-11 06:30 11.44 20500 76500 (1987) 325 (1932) 7030 424 476 579 703 1740 6950 9200 19900 33100
2019-10-11 05:30 12.10 22400 76500 (1987) 325 (1932) 7030 424 476 579 703 1740 6950 9200 19900 33100
2019-10-11 04:30 12.70 24100 76500 (1987) 325 (1932) 7030 424 476 579 703 1740 6950 9200 19900 33100
2019-10-11 03:30 13.92 27900 76500 (1987) 325 (1932) 7030 424 476 579 703 1740 6950 9200 19900 33100
2019-10-11 02:30 13.15 25500 76500 (1987) 325 (1932) 7030 424 476 579 703 1740 6950 9200 19900 33100
2019-10-11 01:30 13.25 25800 76500 (1987) 325 (1932) 7030 424 476 579 703 1740 6950 9200 19900 33100
2019-10-11 00:30 12.71 24200 76500 (1987) 325 (1932) 7030 424 476 579 703 1740 6950 9200 19900 33100
2019-10-10 23:30 13.61 26900 88800 (1942) 353 (1972) 7170 429 468 557 624 1660 6250 8770 22000 30700
2019-10-10 22:30 13.16 25500 88800 (1942) 353 (1972) 7170 429 468 557 624 1660 6250 8770 22000 30700
2019-10-10 21:30 13.40 26300 88800 (1942) 353 (1972) 7170 429 468 557 624 1660 6250 8770 22000 30700
2019-10-10 20:30 11.95 22000 88800 (1942) 353 (1972) 7170 429 468 557 624 1660 6250 8770 22000 30700
2019-10-10 19:30 12.08 22300 88800 (1942) 353 (1972) 7170 429 468 557 624 1660 6250 8770 22000 30700
2019-10-10 18:30 11.65 21100 88800 (1942) 353 (1972) 7170 429 468 557 624 1660 6250 8770 22000 30700
2019-10-10 17:30 10.72 18500 88800 (1942) 353 (1972) 7170 429 468 557 624 1660 6250 8770 22000 30700
2019-10-10 16:30 10.34 17500 88800 (1942) 353 (1972) 7170 429 468 557 624 1660 6250 8770 22000 30700
2019-10-10 15:30 9.07 14300 88800 (1942) 353 (1972) 7170 429 468 557 624 1660 6250 8770 22000 30700
2019-10-10 14:30 10.22 17200 88800 (1942) 353 (1972) 7170 429 468 557 624 1660 6250 8770 22000 30700
2019-10-10 13:30 11.68 21200 88800 (1942) 353 (1972) 7170 429 468 557 624 1660 6250 8770 22000 30700
2019-10-10 12:30 11.01 19300 88800 (1942) 353 (1972) 7170 429 468 557 624 1660 6250 8770 22000 30700
2019-10-10 11:30 12.74 24300 88800 (1942) 353 (1972) 7170 429 468 557 624 1660 6250 8770 22000 30700
2019-10-10 10:30 12.08 22300 88800 (1942) 353 (1972) 7170 429 468 557 624 1660 6250 8770 22000 30700
2019-10-10 09:30 11.54 20800 88800 (1942) 353 (1972) 7170 429 468 557 624 1660 6250 8770 22000 30700
2019-10-10 08:30 10.98 19200 88800 (1942) 353 (1972) 7170 429 468 557 624 1660 6250 8770 22000 30700
2019-10-10 07:30 9.26 14700 88800 (1942) 353 (1972) 7170 429 468 557 624 1660 6250 8770 22000 30700
2019-10-10 06:30 9.96 16500 88800 (1942) 353 (1972) 7170 429 468 557 624 1660 6250 8770 22000 30700
2019-10-10 05:30 9.68 15800 88800 (1942) 353 (1972) 7170 429 468 557 624 1660 6250 8770 22000 30700
2019-10-10 04:30 7.81 11300 88800 (1942) 353 (1972) 7170 429 468 557 624 1660 6250 8770 22000 30700
2019-10-10 03:30 7.45 10500 88800 (1942) 353 (1972) 7170 429 468 557 624 1660 6250 8770 22000 30700
2019-10-10 02:30 8.71 13400 88800 (1942) 353 (1972) 7170 429 468 557 624 1660 6250 8770 22000 30700
2019-10-10 01:30 10.69 18400 88800 (1942) 353 (1972) 7170 429 468 557 624 1660 6250 8770 22000 30700
2019-10-10 00:30 12.77 24400 88800 (1942) 353 (1972) 7170 429 468 557 624 1660 6250 8770 22000 30700
2019-10-09 23:30 12.75 24300 93900 (1942) 350 (1932) 7050 383 467 569 625 1630 5630 8420 20100 31800
2019-10-09 22:30 13.96 28000 93900 (1942) 350 (1932) 7050 383 467 569 625 1630 5630 8420 20100 31800
2019-10-09 21:30 13.79 27500 93900 (1942) 350 (1932) 7050 383 467 569 625 1630 5630 8420 20100 31800
2019-10-09 20:30 13.82 27600 93900 (1942) 350 (1932) 7050 383 467 569 625 1630 5630 8420 20100 31800
2019-10-09 19:30 13.93 27900 93900 (1942) 350 (1932) 7050 383 467 569 625 1630 5630 8420 20100 31800
2019-10-09 18:30 13.62 26900 93900 (1942) 350 (1932) 7050 383 467 569 625 1630 5630 8420 20100 31800
2019-10-09 17:30 13.86 27700 93900 (1942) 350 (1932) 7050 383 467 569 625 1630 5630 8420 20100 31800
2019-10-09 16:30 13.20 25700 93900 (1942) 350 (1932) 7050 383 467 569 625 1630 5630 8420 20100 31800
2019-10-09 15:30 12.42 23300 93900 (1942) 350 (1932) 7050 383 467 569 625 1630 5630 8420 20100 31800
2019-10-09 14:30 12.97 25000 93900 (1942) 350 (1932) 7050 383 467 569 625 1630 5630 8420 20100 31800
2019-10-09 13:30 13.09 25300 93900 (1942) 350 (1932) 7050 383 467 569 625 1630 5630 8420 20100 31800
2019-10-09 12:30 11.73 21300 93900 (1942) 350 (1932) 7050 383 467 569 625 1630 5630 8420 20100 31800
2019-10-09 11:30 11.84 21600 93900 (1942) 350 (1932) 7050 383 467 569 625 1630 5630 8420 20100 31800
2019-10-09 10:30 10.75 18600 93900 (1942) 350 (1932) 7050 383 467 569 625 1630 5630 8420 20100 31800
2019-10-09 09:30 11.14 19700 93900 (1942) 350 (1932) 7050 383 467 569 625 1630 5630 8420 20100 31800
2019-10-09 08:30 9.22 14600 93900 (1942) 350 (1932) 7050 383 467 569 625 1630 5630 8420 20100 31800
2019-10-09 07:30 6.20 7860 93900 (1942) 350 (1932) 7050 383 467 569 625 1630 5630 8420 20100 31800
2019-10-09 06:30 5.98 7430 93900 (1942) 350 (1932) 7050 383 467 569 625 1630 5630 8420 20100 31800
2019-10-09 05:30 4.06 4080 93900 (1942) 350 (1932) 7050 383 467 569 625 1630 5630 8420 20100 31800
2019-10-09 04:30 4.40 4620 93900 (1942) 350 (1932) 7050 383 467 569 625 1630 5630 8420 20100 31800
2019-10-09 03:30 4.85 5370 93900 (1942) 350 (1932) 7050 383 467 569 625 1630 5630 8420 20100 31800
2019-10-09 02:30 5.50 6520 93900 (1942) 350 (1932) 7050 383 467 569 625 1630 5630 8420 20100 31800
2019-10-09 01:30 6.69 8850 93900 (1942) 350 (1932) 7050 383 467 569 625 1630 5630 8420 20100 31800
2019-10-09 00:30 6.14 7740 93900 (1942) 350 (1932) 7050 383 467 569 625 1630 5630 8420 20100 31800
2019-10-08 23:30 5.13 5860 97500 (1942) 373 (1961) 7010 429 472 532 623 1090 5800 7390 20900 33200
2019-10-08 22:30 5.77 7030 97500 (1942) 373 (1961) 7010 429 472 532 623 1090 5800 7390 20900 33200
2019-10-08 21:30 6.60 8670 97500 (1942) 373 (1961) 7010 429 472 532 623 1090 5800 7390 20900 33200
2019-10-08 20:30 7.91 11500 97500 (1942) 373 (1961) 7010 429 472 532 623 1090 5800 7390 20900 33200
2019-10-08 19:30 9.52 15400 97500 (1942) 373 (1961) 7010 429 472 532 623 1090 5800 7390 20900 33200
2019-10-08 18:30 9.20 14600 97500 (1942) 373 (1961) 7010 429 472 532 623 1090 5800 7390 20900 33200
2019-10-08 17:30 8.88 13800 97500 (1942) 373 (1961) 7010 429 472 532 623 1090 5800 7390 20900 33200
2019-10-08 16:30 9.15 14500 97500 (1942) 373 (1961) 7010 429 472 532 623 1090 5800 7390 20900 33200
2019-10-08 15:30 8.41 12700 97500 (1942) 373 (1961) 7010 429 472 532 623 1090 5800 7390 20900 33200
2019-10-08 14:30 7.28 10100 97500 (1942) 373 (1961) 7010 429 472 532 623 1090 5800 7390 20900 33200
2019-10-08 13:30 7.85 11400 97500 (1942) 373 (1961) 7010 429 472 532 623 1090 5800 7390 20900 33200
2019-10-08 12:30 7.24 10000 97500 (1942) 373 (1961) 7010 429 472 532 623 1090 5800 7390 20900 33200
2019-10-08 11:30 7.00 9500 97500 (1942) 373 (1961) 7010 429 472 532 623 1090 5800 7390 20900 33200
2019-10-08 10:30 5.26 6090 97500 (1942) 373 (1961) 7010 429 472 532 623 1090 5800 7390 20900 33200
2019-10-08 09:30 3.98 3960 97500 (1942) 373 (1961) 7010 429 472 532 623 1090 5800 7390 20900 33200
2019-10-08 08:30 4.17 4260 97500 (1942) 373 (1961) 7010 429 472 532 623 1090 5800 7390 20900 33200
2019-10-08 07:30 4.46 4720 97500 (1942) 373 (1961) 7010 429 472 532 623 1090 5800 7390 20900 33200
2019-10-08 06:30 4.61 4970 97500 (1942) 373 (1961) 7010 429 472 532 623 1090 5800 7390 20900 33200
2019-10-08 05:30 4.79 5270 97500 (1942) 373 (1961) 7010 429 472 532 623 1090 5800 7390 20900 33200
2019-10-08 04:30 5.10 5800 97500 (1942) 373 (1961) 7010 429 472 532 623 1090 5800 7390 20900 33200
2019-10-08 03:30 5.49 6510 97500 (1942) 373 (1961) 7010 429 472 532 623 1090 5800 7390 20900 33200
2019-10-08 02:30 6.00 7470 97500 (1942) 373 (1961) 7010 429 472 532 623 1090 5800 7390 20900 33200
2019-10-08 01:30 6.65 8770 97500 (1942) 373 (1961) 7010 429 472 532 623 1090 5800 7390 20900 33200
2019-10-08 00:30 7.44 10500 97500 (1942) 373 (1961) 7010 429 472 532 623 1090 5800 7390 20900 33200
2019-10-07 23:30 8.53 13000 117000 (1942) 370 (1961) 7350 450 475 583 662 1650 6110 9990 20600 33000
2019-10-07 22:30 10.17 17100 117000 (1942) 370 (1961) 7350 450 475 583 662 1650 6110 9990 20600 33000
2019-10-07 21:30 12.13 22500 117000 (1942) 370 (1961) 7350 450 475 583 662 1650 6110 9990 20600 33000
2019-10-07 20:30 13.74 27300 117000 (1942) 370 (1961) 7350 450 475 583 662 1650 6110 9990 20600 33000
2019-10-07 19:30 13.16 25500 117000 (1942) 370 (1961) 7350 450 475 583 662 1650 6110 9990 20600 33000
2019-10-07 18:30 12.09 22400 117000 (1942) 370 (1961) 7350 450 475 583 662 1650 6110 9990 20600 33000
2019-10-07 17:30 10.82 18800 117000 (1942) 370 (1961) 7350 450 475 583 662 1650 6110 9990 20600 33000
2019-10-07 16:30 10.36 17600 117000 (1942) 370 (1961) 7350 450 475 583 662 1650 6110 9990 20600 33000
2019-10-07 15:30 11.30 20100 117000 (1942) 370 (1961) 7350 450 475 583 662 1650 6110 9990 20600 33000
2019-10-07 14:30 12.19 22600 117000 (1942) 370 (1961) 7350 450 475 583 662 1650 6110 9990 20600 33000
2019-10-07 13:30 12.97 25000 117000 (1942) 370 (1961) 7350 450 475 583 662 1650 6110 9990 20600 33000
2019-10-07 12:30 13.67 27100 117000 (1942) 370 (1961) 7350 450 475 583 662 1650 6110 9990 20600 33000
2019-10-07 11:30 13.26 25800 117000 (1942) 370 (1961) 7350 450 475 583 662 1650 6110 9990 20600 33000
2019-10-07 10:30 12.60 23900 117000 (1942) 370 (1961) 7350 450 475 583 662 1650 6110 9990 20600 33000
2019-10-07 09:30 11.53 20800 117000 (1942) 370 (1961) 7350 450 475 583 662 1650 6110 9990 20600 33000
2019-10-07 08:30 10.28 17400 117000 (1942) 370 (1961) 7350 450 475 583 662 1650 6110 9990 20600 33000
2019-10-07 07:30 5.89 7260 117000 (1942) 370 (1961) 7350 450 475 583 662 1650 6110 9990 20600 33000
2019-10-07 06:30 3.08 2740 117000 (1942) 370 (1961) 7350 450 475 583 662 1650 6110 9990 20600 33000
2019-10-07 05:30 3.08 2740 117000 (1942) 370 (1961) 7350 450 475 583 662 1650 6110 9990 20600 33000
2019-10-07 04:30 3.08 2740 117000 (1942) 370 (1961) 7350 450 475 583 662 1650 6110 9990 20600 33000
2019-10-07 03:30 3.08 2740 117000 (1942) 370 (1961) 7350 450 475 583 662 1650 6110 9990 20600 33000
2019-10-07 02:30 3.08 2740 117000 (1942) 370 (1961) 7350 450 475 583 662 1650 6110 9990 20600 33000
2019-10-07 01:30 3.08 2740 117000 (1942) 370 (1961) 7350 450 475 583 662 1650 6110 9990 20600 33000
2019-10-07 00:30 3.08 2740 117000 (1942) 370 (1961) 7350 450 475 583 662 1650 6110 9990 20600 33000

A total of 171 rows are displayed for years 1931 through 2019.

Trips for Osage River (Missouri), Bagnell (06926000)

DateStartEndDistanceConditionDischargeHeightFishingDetails

A total of 0 rows are displayed.

Condition Descriptions

Fishing Conditions

Fish Species

Notes

Classic Trip List

The classic River Trips application is still available for use. It is updated with the new system using a data retrofit. It is no longer maintained. The original River Trips application is no longer updated (as of 1 Dec 2016) but can be checked for errors or for the condition of the data before it was converted to the new system.